^^
Meteo Knjazevac Station Historical Data
Daily Summary for April 28, 2021 Units:  Metric    English   Both
Daily Weekly Monthly Yearly Custom
  High: Low: Average:
Temperature: 20.5 °C 12.8 °C 15.1 °C
Dew Point: 15.3 °C 11.2 °C 12.9 °C
Humidity: 93% 72% 87%
Wind Speed: 4.8km/h 0km/h 2.1km/h
Wind Gust: 9.7km/h - -
Wind- - SW
Pressure: 1017.8 hPa 1016.8 hPa -
Precipitation: 0 mm    
Historical Graphs
 
 
Tabular Data for April 28, 2021
Time Temperature Dew Point Pressure Wind Wind Speed Wind Gust Humidity Rainfall Rate (Hourly) solar Conditions
00:00 15.9 °C 13.4 °C 1017.5 hPa SW 4.8 km/h 9.7 km/h 85% 0 mm 0 W/m2
00:10 15.8 °C 13.3 °C 1017.8 hPa SW 4.8 km/h 9.7 km/h 85% 0 mm 0 W/m2
00:20 15.7 °C 13.2 °C 1017.8 hPa SW 4.8 km/h 9.7 km/h 85% 0 mm 0 W/m2
00:30 15.7 °C 13.2 °C 1017.8 hPa SSW 4.8 km/h 9.7 km/h 85% 0 mm 0 W/m2
00:40 15.7 °C 13.2 °C 1017.8 hPa SW 3.2 km/h 8 km/h 85% 0 mm 0 W/m2
00:50 15.7 °C 13.2 °C 1017.8 hPa SW 3.2 km/h 6.4 km/h 85% 0 mm 0 W/m2
01:00 15.8 °C 13.3 °C 1017.5 hPa South 3.2 km/h 8 km/h 85% 0 mm 0 W/m2
01:10 15.8 °C 13.3 °C 1017.5 hPa South 1.6 km/h 8 km/h 85% 0 mm 0 W/m2
01:20 15.7 °C 13.2 °C 1017.5 hPa SW 1.6 km/h 4.8 km/h 85% 0 mm 0 W/m2
01:30 15.7 °C 13.2 °C 1017.5 hPa SW 3.2 km/h 4.8 km/h 85% 0 mm 0 W/m2
01:40 15.7 °C 13.2 °C 1017.5 hPa SSW 1.6 km/h 6.4 km/h 85% 0 mm 0 W/m2
01:50 15.7 °C 13.4 °C 1017.5 hPa SSE 3.2 km/h 6.4 km/h 86% 0 mm 0 W/m2
02:00 15.7 °C 13.4 °C 1017.2 hPa SSE 3.2 km/h 6.4 km/h 86% 0 mm 0 W/m2
02:10 15.7 °C 13.4 °C 1017.2 hPa South 1.6 km/h 4.8 km/h 86% 0 mm 0 W/m2
02:20 15.6 °C 13.3 °C 1017.2 hPa WSW 1.6 km/h 4.8 km/h 86% 0 mm 0 W/m2
02:30 15.5 °C 13.2 °C 1017.2 hPa SW 3.2 km/h 8 km/h 86% 0 mm 0 W/m2
02:40 15.4 °C 13.1 °C 1017.2 hPa SW 3.2 km/h 8 km/h 86% 0 mm 0 W/m2
02:50 15.3 °C 13.3 °C 1017.5 hPa West 3.2 km/h 4.8 km/h 88% 0 mm 0 W/m2
03:00 15.2 °C 13.2 °C 1017.5 hPa WSW 3.2 km/h 6.4 km/h 88% 0 mm 0 W/m2
03:10 15.1 °C 13.1 °C 1017.5 hPa SW 3.2 km/h 6.4 km/h 88% 0 mm 0 W/m2
03:20 15 °C 13.2 °C 1017.5 hPa SSW 3.2 km/h 8 km/h 89% 0 mm 0 W/m2
03:30 14.8 °C 13 °C 1017.5 hPa SW 3.2 km/h 8 km/h 89% 0 mm 0 W/m2
03:40 14.8 °C 13 °C 1017.2 hPa SW 1.6 km/h 4.8 km/h 89% 0 mm 0 W/m2
03:50 14.8 °C 13 °C 1017.2 hPa SW 1.6 km/h 4.8 km/h 89% 0 mm 0 W/m2
04:00 14.7 °C 12.9 °C 1017.2 hPa WNW 1.6 km/h 4.8 km/h 89% 0 mm 0 W/m2
04:10 14.6 °C 12.8 °C 1017.2 hPa SSW 1.6 km/h 4.8 km/h 89% 0 mm 0 W/m2
04:20 14.5 °C 12.7 °C 1017.2 hPa Calm   1.6 km/h 89% 0 mm 0 W/m2
04:30 14.3 °C 12.5 °C 1017.2 hPa Calm   3.2 km/h 89% 0 mm 0 W/m2
04:40 14.2 °C 12.4 °C 1017.5 hPa Calm   3.2 km/h 89% 0 mm 0 W/m2
04:50 14 °C 12.4 °C 1017.5 hPa Calm   3.2 km/h 90% 0 mm 0 W/m2
05:00 13.9 °C 12.3 °C 1017.2 hPa Calm   3.2 km/h 90% 0 mm 0 W/m2
05:10 13.8 °C 12.2 °C 1017.2 hPa Calm   3.2 km/h 90% 0 mm 0 W/m2
05:20 13.7 °C 12.1 °C 1017.2 hPa WNW 1.6 km/h 3.2 km/h 90% 0 mm 0 W/m2
05:30 13.4 °C 11.8 °C 1017.5 hPa West 1.6 km/h 3.2 km/h 90% 0 mm 0 W/m2
05:40 13.3 °C 11.7 °C 1017.5 hPa Calm   3.2 km/h 90% 0 mm 0 W/m2
05:50 13.2 °C 11.6 °C 1017.5 hPa Calm   3.2 km/h 90% 0 mm 3 W/m2
06:00 13 °C 11.4 °C 1017.5 hPa WNW 1.6 km/h 3.2 km/h 90% 0 mm 8 W/m2
06:10 12.8 °C 11.2 °C 1017.5 hPa WNW 1.6 km/h 3.2 km/h 90% 0 mm 14 W/m2
06:20 12.9 °C 11.4 °C 1017.5 hPa Calm   3.2 km/h 91% 0 mm 23 W/m2
06:30 12.9 °C 11.3 °C 1017.8 hPa West 1.6 km/h 3.2 km/h 90% 0 mm 48 W/m2
06:40 12.8 °C 11.2 °C 1017.8 hPa Calm   3.2 km/h 90% 0 mm 72 W/m2
06:50 12.9 °C 11.8 °C 1017.8 hPa WNW 1.6 km/h 4.8 km/h 93% 0 mm 87 W/m2
07:00 13 °C 11.9 °C 1017.8 hPa NW 1.6 km/h 3.2 km/h 93% 0 mm 122 W/m2
07:10 13.1 °C 12 °C 1017.8 hPa Calm   4.8 km/h 93% 0 mm 158 W/m2
07:20 13.2 °C 12.1 °C 1017.8 hPa Calm   3.2 km/h 93% 0 mm 193 W/m2
07:30 13.5 °C 12.4 °C 1017.8 hPa Calm   3.2 km/h 93% 0 mm 233 W/m2
07:40 13.8 °C 12.7 °C 1017.8 hPa Calm   3.2 km/h 93% 0 mm 268 W/m2
07:50 14.1 °C 12.7 °C 1017.8 hPa West 1.6 km/h 8 km/h 91% 0 mm 246 W/m2
08:00 14.4 °C 12.8 °C 1017.8 hPa WNW 3.2 km/h 8 km/h 90% 0 mm 316 W/m2
08:10 14.7 °C 12.9 °C 1017.8 hPa North 1.6 km/h 6.4 km/h 89% 0 mm 370 W/m2
08:20 15 °C 13 °C 1017.5 hPa West 1.6 km/h 8 km/h 88% 0 mm 391 W/m2
08:30 15.3 °C 13 °C 1017.8 hPa South 3.2 km/h 9.7 km/h 86% 0 mm 434 W/m2
08:40 15.9 °C 13.4 °C 1017.8 hPa SSE 1.6 km/h 8 km/h 85% 0 mm 464 W/m2
08:50 16.9 °C 14 °C 1017.8 hPa WSW 3.2 km/h 9.7 km/h 83% 0 mm 386 W/m2
09:00 17.4 °C 14.1 °C 1017.2 hPa WSW 4.8 km/h 9.7 km/h 81% 0 mm 355 W/m2
09:10 17.8 °C 14.1 °C 1017.2 hPa SW 3.2 km/h 8 km/h 79% 0 mm 475 W/m2
09:20 18.4 °C 14.5 °C 1017.2 hPa WSW 1.6 km/h 8 km/h 78% 0 mm 576 W/m2
09:30 19 °C 14.4 °C 1017.2 hPa WSW 3.2 km/h 9.7 km/h 75% 0 mm 584 W/m2
09:40 19.6 °C 14.8 °C 1016.8 hPa WSW 3.2 km/h 8 km/h 74% 0 mm 575 W/m2
09:50 19.9 °C 14.7 °C 1016.8 hPa WSW 1.6 km/h 8 km/h 72% 0 mm 599 W/m2
10:00 20.5 °C 15.3 °C 1016.8 hPa WSW 3.2 km/h 9.7 km/h 72% 0 mm 676 W/m2
Knjazevac, Serbia
Compliments of Weather Underground - 2 mb